createdAt,value
2022-09-20T00:02:13.587Z,0.60
2022-09-20T00:07:15.059Z,0.70
2022-09-20T00:12:16.555Z,0.40
2022-09-20T00:17:18.022Z,0.50
2022-09-20T00:22:19.758Z,0.55
2022-09-20T00:27:21.242Z,0.40
2022-09-20T00:32:22.689Z,0.60
2022-09-20T00:37:24.149Z,0.57
2022-09-20T00:42:29.722Z,0.57
2022-09-20T00:47:31.190Z,0.50
2022-09-20T00:52:33.183Z,0.68
2022-09-20T00:57:36.429Z,0.50
2022-09-20T01:02:41.062Z,0.43
2022-09-20T01:07:43.713Z,0.55
2022-09-20T01:12:46.234Z,0.40
2022-09-20T01:17:49.604Z,0.43
2022-09-20T01:23:03.469Z,0.47
2022-09-20T01:28:04.982Z,0.30
2022-09-20T01:33:12.891Z,0.30
2022-09-20T01:38:14.355Z,0.30
2022-09-20T01:43:25.782Z,0.30
2022-09-20T01:48:38.309Z,0.22
2022-09-20T01:53:58.258Z,0.35
2022-09-20T01:59:22.443Z,0.33
2022-09-20T02:04:33.130Z,0.20
2022-09-20T02:09:49.666Z,0.32
2022-09-20T02:14:51.104Z,0.40
2022-09-20T02:19:52.902Z,0.32
2022-09-20T02:25:13.030Z,0.22
2022-09-20T02:30:20.921Z,0.30
2022-09-20T02:35:22.417Z,0.30
2022-09-20T02:40:23.983Z,0.28
2022-09-20T02:45:37.447Z,0.47
2022-09-20T02:50:38.909Z,0.52
2022-09-20T02:55:46.609Z,0.57
2022-09-20T03:01:08.361Z,0.90
2022-09-20T03:06:21.030Z,0.40
2022-09-20T03:11:40.987Z,0.50
2022-09-20T03:16:54.831Z,0.50
2022-09-20T03:22:05.518Z,0.40
2022-09-20T03:27:27.206Z,0.30
2022-09-20T03:32:50.956Z,0.43
2022-09-20T03:37:58.315Z,0.30
2022-09-20T03:43:24.201Z,0.63
2022-09-20T03:48:44.482Z,0.40
2022-09-20T03:54:09.294Z,0.50
2022-09-20T03:59:10.829Z,0.50
2022-09-20T04:04:31.334Z,0.60
2022-09-20T04:09:38.746Z,0.35
2022-09-20T04:14:40.183Z,0.30
2022-09-20T04:19:47.863Z,0.50
2022-09-20T04:25:01.277Z,0.57
2022-09-20T04:30:05.885Z,0.40
2022-09-20T04:35:31.966Z,0.50
2022-09-20T04:40:36.442Z,0.30
2022-09-20T04:46:07.546Z,0.40
2022-09-20T04:51:16.242Z,0.30
2022-09-20T04:56:22.219Z,0.35
2022-09-20T05:01:42.549Z,0.40
2022-09-20T05:06:59.379Z,0.35
2022-09-20T05:12:14.160Z,0.30
2022-09-20T05:17:27.732Z,0.20
2022-09-20T05:22:30.025Z,0.35
2022-09-20T05:27:41.075Z,0.30
2022-09-20T05:32:52.129Z,0.13
2022-09-20T05:37:56.425Z,0.40
2022-09-20T05:43:27.101Z,0.40
2022-09-20T05:48:52.226Z,0.45
2022-09-20T05:53:56.827Z,0.38
2022-09-20T05:59:02.125Z,0.30
2022-09-20T06:04:10.310Z,0.40
2022-09-20T06:09:14.602Z,0.15
2022-09-20T06:14:16.087Z,0.20
2022-09-20T06:19:36.483Z,0.32
2022-09-20T06:24:56.666Z,0.28
2022-09-20T06:30:00.313Z,0.28
2022-09-20T06:35:03.078Z,0.40
2022-09-20T06:40:22.822Z,0.40
2022-09-20T06:45:24.314Z,0.38
2022-09-20T06:50:25.813Z,0.38
2022-09-20T06:55:29.571Z,0.40
2022-09-20T07:00:31.099Z,0.40
2022-09-20T07:05:32.759Z,0.30
2022-09-20T07:10:34.256Z,0.40
2022-09-20T07:15:35.761Z,0.30
2022-09-20T07:20:37.300Z,0.38
2022-09-20T07:25:38.817Z,0.30
2022-09-20T07:30:40.275Z,0.40
2022-09-20T07:35:41.742Z,0.40
2022-09-20T07:40:43.831Z,0.15
2022-09-20T07:45:45.367Z,0.30
2022-09-20T07:50:53.823Z,0.20
2022-09-20T07:55:58.136Z,0.22
2022-09-20T08:01:00.825Z,0.38
2022-09-20T08:06:04.358Z,0.20
2022-09-20T08:11:16.287Z,0.20
2022-09-20T08:16:17.881Z,0.30
2022-09-20T08:21:19.621Z,0.50
2022-09-20T08:26:22.722Z,0.28
2022-09-20T08:31:25.733Z,0.40
2022-09-20T08:36:31.007Z,0.20
2022-09-20T08:41:39.268Z,0.20
2022-09-20T08:46:43.512Z,0.30
2022-09-20T08:51:49.237Z,0.40
2022-09-20T08:56:51.193Z,0.25
2022-09-20T09:01:53.676Z,0.10
2022-09-20T09:06:55.188Z,0.10
2022-09-20T09:11:58.835Z,0.20
2022-09-20T09:17:00.986Z,0.25
2022-09-20T09:22:04.427Z,0.32
2022-09-20T09:27:09.843Z,0.10
2022-09-20T09:32:23.566Z,0.30
2022-09-20T09:37:28.832Z,0.10
2022-09-20T09:42:31.751Z,0.30
2022-09-20T09:47:37.567Z,0.17
2022-09-20T09:52:39.479Z,0.30
2022-09-20T09:58:00.298Z,0.20
2022-09-20T10:08:18.467Z,0.32
2022-09-20T10:13:31.973Z,0.10
2022-09-20T10:18:33.554Z,0.30
2022-09-20T10:29:12.594Z,0.10
2022-09-20T10:39:31.463Z,0.30
2022-09-20T10:44:46.686Z,0.30
2022-09-20T10:50:00.686Z,0.20
2022-09-20T10:55:09.005Z,0.40
2022-09-20T11:00:16.311Z,0.30
2022-09-20T11:05:26.200Z,0.22
2022-09-20T11:10:39.890Z,0.30
2022-09-20T11:15:43.474Z,0.35
2022-09-20T11:20:47.672Z,0.22
2022-09-20T11:25:51.950Z,0.30
2022-09-20T11:31:11.581Z,0.30
2022-09-20T11:36:19.520Z,0.20
2022-09-20T11:41:23.923Z,0.40
2022-09-20T11:46:27.989Z,0.28
2022-09-20T11:51:29.430Z,0.30
2022-09-20T11:56:32.288Z,0.35
2022-09-20T12:01:38.580Z,0.35
2022-09-20T12:06:42.609Z,0.40
2022-09-20T12:11:44.088Z,0.30
2022-09-20T12:16:46.903Z,0.40
2022-09-20T12:22:08.713Z,0.50
2022-09-20T12:27:36.210Z,0.30
2022-09-20T12:32:42.750Z,0.30
2022-09-20T12:37:44.402Z,0.35
2022-09-20T12:42:56.831Z,0.43
2022-09-20T12:47:58.363Z,0.50
2022-09-20T12:53:04.233Z,0.40
2022-09-20T12:58:14.822Z,0.30
2022-09-20T13:03:23.882Z,0.25
2022-09-20T13:08:27.861Z,0.30
2022-09-20T13:13:33.331Z,0.50
2022-09-20T13:18:35.534Z,0.50
2022-09-20T13:23:55.510Z,0.30
2022-09-20T13:28:58.825Z,0.30
2022-09-20T13:34:38.909Z,0.40
2022-09-20T13:39:41.346Z,0.30
2022-09-20T13:44:43.548Z,0.28
2022-09-20T13:49:45.147Z,0.30
2022-09-20T13:54:47.155Z,0.57
2022-09-20T13:59:49.437Z,0.28
2022-09-20T14:04:52.005Z,0.40
2022-09-20T14:09:54.249Z,0.30
2022-09-20T14:14:55.957Z,0.25
2022-09-20T14:19:58.385Z,0.28
2022-09-20T14:25:18.744Z,0.43
2022-09-20T14:30:29.381Z,0.40
2022-09-20T14:35:31.249Z,0.30
2022-09-20T14:40:40.416Z,0.40
2022-09-20T14:45:43.343Z,0.38
2022-09-20T14:50:46.361Z,0.40
2022-09-20T14:56:06.998Z,0.32
2022-09-20T15:01:22.762Z,0.20
2022-09-20T15:06:24.679Z,0.30
2022-09-20T15:11:26.665Z,0.60
2022-09-20T15:16:28.743Z,0.30
2022-09-20T15:21:30.572Z,0.88
2022-09-20T15:26:32.979Z,0.30
2022-09-20T15:31:34.531Z,0.20
2022-09-20T15:36:36.211Z,0.40
2022-09-20T15:41:38.126Z,0.35
2022-09-20T15:46:41.566Z,0.30
2022-09-20T15:51:43.059Z,0.25
2022-09-20T15:56:44.519Z,1.42
2022-09-20T16:01:48.154Z,1.00
2022-09-20T16:06:50.277Z,2.75
2022-09-20T16:11:51.844Z,1.65
2022-09-20T16:16:53.319Z,1.00
2022-09-20T16:21:58.874Z,1.38
2022-09-20T16:27:01.665Z,1.73
2022-09-20T16:32:03.971Z,2.28
2022-09-20T16:37:14.844Z,0.95
2022-09-20T16:42:17.073Z,0.93
2022-09-20T16:47:22.229Z,0.60
2022-09-20T16:52:26.424Z,0.50
2022-09-20T16:57:28.921Z,0.20
2022-09-20T17:02:30.382Z,0.40
2022-09-20T17:07:33.769Z,0.28
2022-09-20T17:12:41.522Z,0.38
2022-09-20T17:17:42.996Z,0.28
2022-09-20T17:22:44.452Z,0.25
2022-09-20T17:27:48.032Z,1.00
2022-09-20T17:32:50.858Z,2.30
2022-09-20T17:37:52.314Z,1.95
2022-09-20T17:42:55.001Z,1.00
2022-09-20T17:47:57.619Z,0.50
2022-09-20T17:52:59.117Z,0.43
2022-09-20T17:58:01.150Z,1.38
2022-09-20T18:03:04.860Z,2.45
2022-09-20T18:08:06.595Z,1.52
2022-09-20T18:13:08.190Z,0.65
2022-09-20T18:18:09.648Z,0.40
2022-09-20T18:23:11.281Z,0.43
2022-09-20T18:28:12.790Z,0.77
2022-09-20T18:33:17.243Z,0.35
2022-09-20T18:38:19.101Z,0.25
2022-09-20T18:43:20.574Z,0.28
2022-09-20T18:48:24.926Z,0.50
2022-09-20T18:53:27.291Z,0.68
2022-09-20T18:58:28.869Z,0.60
2022-09-20T19:03:45.613Z,0.30
2022-09-20T19:09:14.944Z,0.60
2022-09-20T19:14:16.390Z,0.50
2022-09-20T19:19:19.499Z,1.27
2022-09-20T19:24:39.485Z,1.50
2022-09-20T19:29:41.226Z,0.73
2022-09-20T19:34:43.416Z,0.85
2022-09-20T19:39:57.408Z,1.20
2022-09-20T19:44:58.999Z,1.30
2022-09-20T19:50:03.549Z,1.15
2022-09-20T19:55:05.340Z,1.17
2022-09-20T20:00:09.534Z,0.88
2022-09-20T20:05:12.753Z,0.50
2022-09-20T20:10:19.123Z,0.60
2022-09-20T20:15:40.919Z,0.52
2022-09-20T20:20:49.370Z,0.80
2022-09-20T20:26:03.125Z,0.40
2022-09-20T20:31:06.366Z,0.40
2022-09-20T20:36:09.056Z,0.50
2022-09-20T20:41:11.853Z,1.05
2022-09-20T20:46:14.404Z,2.50
2022-09-20T20:51:17.469Z,3.92
2022-09-20T20:56:20.488Z,3.47
2022-09-20T21:01:23.134Z,2.05
2022-09-20T21:06:26.450Z,1.10
2022-09-20T21:11:28.747Z,0.82
2022-09-20T21:16:31.920Z,1.08
2022-09-20T21:21:35.208Z,1.00
2022-09-20T21:26:37.417Z,1.27
2022-09-20T21:31:39.868Z,0.80
2022-09-20T21:36:41.666Z,0.80
2022-09-20T21:41:43.254Z,0.93
2022-09-20T21:46:44.925Z,0.98
2022-09-20T21:51:46.503Z,1.10
2022-09-20T21:56:49.980Z,0.98
2022-09-20T22:01:51.702Z,1.30
2022-09-20T22:06:53.368Z,0.70
2022-09-20T22:11:54.894Z,0.80
2022-09-20T22:16:56.494Z,0.47
2022-09-20T22:21:57.927Z,0.55
2022-09-20T22:26:59.402Z,0.63
2022-09-20T22:32:01.054Z,0.47
2022-09-20T22:37:02.483Z,0.60
2022-09-20T22:42:04.098Z,0.63
2022-09-20T22:47:05.741Z,0.50
2022-09-20T22:52:07.562Z,0.22
2022-09-20T22:57:08.970Z,0.47
2022-09-20T23:02:10.674Z,0.60
2022-09-20T23:07:12.101Z,0.50
2022-09-20T23:12:13.586Z,0.43
2022-09-20T23:17:15.003Z,0.40
2022-09-20T23:22:16.418Z,0.65
2022-09-20T23:27:18.753Z,0.40
2022-09-20T23:32:20.264Z,0.38
2022-09-20T23:37:21.679Z,0.50
2022-09-20T23:42:23.152Z,0.25
2022-09-20T23:47:24.576Z,0.70
2022-09-20T23:52:25.994Z,0.35
2022-09-20T23:57:27.428Z,0.43
